createdAt,value
2022-11-21T06:00:24.105Z,94.90
2022-11-21T06:05:27.944Z,95.10
2022-11-21T06:10:31.535Z,95.20
2022-11-21T06:15:38.291Z,95.30
2022-11-21T06:20:42.138Z,95.60
2022-11-21T06:25:45.845Z,95.80
2022-11-21T06:30:51.935Z,95.90
2022-11-21T06:35:55.564Z,96.00
2022-11-21T06:40:59.214Z,96.20
2022-11-21T06:46:04.355Z,96.40
2022-11-21T06:51:09.660Z,96.60
2022-11-21T06:56:13.238Z,96.60
2022-11-21T07:01:18.230Z,96.60
2022-11-21T07:06:21.882Z,96.60
2022-11-21T07:11:25.886Z,96.60
2022-11-21T07:16:32.437Z,96.70
2022-11-21T07:21:36.287Z,96.80
2022-11-21T07:26:39.826Z,96.80
2022-11-21T07:31:44.746Z,96.90
2022-11-21T07:36:48.314Z,96.90
2022-11-21T07:41:51.820Z,96.80
2022-11-21T07:46:57.533Z,96.80
2022-11-21T07:52:01.080Z,96.90
2022-11-21T07:57:04.705Z,96.90
2022-11-21T08:02:14.496Z,97.00
2022-11-21T08:07:19.956Z,97.20
2022-11-21T08:12:24.030Z,97.20
2022-11-21T08:17:29.126Z,97.30
2022-11-21T08:22:32.710Z,97.30
2022-11-21T08:27:36.303Z,97.20
2022-11-21T08:32:41.355Z,97.40
2022-11-21T08:37:44.932Z,97.50
2022-11-21T08:42:48.523Z,97.70
2022-11-21T08:47:54.613Z,97.90
2022-11-21T08:53:02.362Z,97.90
2022-11-21T08:58:05.958Z,98.20
2022-11-21T09:03:11.159Z,98.30
2022-11-21T09:08:14.810Z,98.50
2022-11-21T09:13:18.332Z,98.60
2022-11-21T09:18:23.231Z,98.60
2022-11-21T09:23:27.193Z,98.50
2022-11-21T09:28:30.984Z,98.50
2022-11-21T09:33:36.870Z,98.70
2022-11-21T09:38:40.511Z,99.00
2022-11-21T09:43:59.025Z,99.20
2022-11-21T09:49:08.683Z,99.40
2022-11-21T09:54:19.491Z,99.40
2022-11-21T09:59:35.001Z,99.60
2022-11-21T10:04:39.890Z,99.70
2022-11-21T10:09:54.542Z,99.60
2022-11-21T10:15:07.750Z,99.90
2022-11-21T10:20:26.405Z,99.90
2022-11-21T10:25:36.922Z,99.90
2022-11-21T10:30:43.541Z,99.90
2022-11-21T10:35:53.022Z,99.70
2022-11-21T10:41:04.580Z,99.40
2022-11-21T10:46:08.338Z,99.60
2022-11-21T10:51:34.708Z,99.70
2022-11-21T10:56:38.662Z,99.50
2022-11-21T11:01:53.123Z,99.40
2022-11-21T11:07:00.121Z,98.90
2022-11-21T11:12:24.901Z,98.80
2022-11-21T11:17:30.133Z,98.20
2022-11-21T11:22:35.067Z,97.40
2022-11-21T11:27:38.911Z,96.70
2022-11-21T11:32:42.590Z,95.80
2022-11-21T11:37:59.446Z,95.60
2022-11-21T11:43:47.870Z,95.80
2022-11-21T11:49:17.891Z,96.00
2022-11-21T11:54:23.199Z,96.50
2022-11-21T11:59:32.334Z,96.20
2022-11-21T12:04:43.824Z,96.10
2022-11-21T12:09:55.979Z,96.60
2022-11-21T12:15:28.281Z,95.50
2022-11-21T12:20:37.475Z,94.20
2022-11-21T12:25:48.889Z,92.80
2022-11-21T12:31:04.735Z,92.20
2022-11-21T12:36:31.089Z,91.10
2022-11-21T12:41:59.491Z,88.30
2022-11-21T12:47:17.044Z,86.30
2022-11-21T12:52:43.784Z,83.90
2022-11-21T12:58:03.937Z,85.10
2022-11-21T13:03:39.320Z,86.20
2022-11-21T13:08:44.583Z,85.10
2022-11-21T13:13:57.004Z,82.70
2022-11-21T13:19:02.353Z,79.70
2022-11-21T13:24:06.328Z,80.40
2022-11-21T13:29:12.209Z,83.10
2022-11-21T13:34:35.955Z,85.80
2022-11-21T13:39:40.088Z,89.70
2022-11-21T13:44:45.180Z,89.10
2022-11-21T13:49:55.876Z,87.50
2022-11-21T13:55:19.224Z,85.70
2022-11-21T14:00:45.571Z,83.60
2022-11-21T14:06:10.182Z,81.80
2022-11-21T14:11:22.391Z,80.00
2022-11-21T14:16:34.112Z,79.20
2022-11-21T14:21:37.894Z,79.40
2022-11-21T14:26:47.159Z,80.10
2022-11-21T14:31:52.442Z,81.00
2022-11-21T14:36:59.064Z,80.30
2022-11-21T14:42:05.278Z,78.40
2022-11-21T14:47:23.141Z,77.80
2022-11-21T14:52:31.535Z,78.90
2022-11-21T14:57:39.944Z,77.50
2022-11-21T15:02:47.069Z,76.30
2022-11-21T15:07:51.168Z,76.90
2022-11-21T15:13:00.481Z,78.20
2022-11-21T15:23:32.220Z,79.40
2022-11-21T15:28:35.844Z,79.20
2022-11-21T15:34:27.256Z,79.40
2022-11-21T15:39:23.293Z,79.20
2022-11-21T15:44:26.955Z,79.30
2022-11-21T15:49:33.411Z,79.60
2022-11-21T15:54:37.279Z,80.20
2022-11-21T15:59:40.941Z,80.60
2022-11-21T16:04:46.044Z,81.00
2022-11-21T16:09:50.149Z,82.10
2022-11-21T16:14:53.705Z,82.40
2022-11-21T16:19:58.726Z,82.50
2022-11-21T16:25:02.240Z,82.50
2022-11-21T16:30:06.808Z,83.10
2022-11-21T16:35:11.775Z,83.20
2022-11-21T16:40:15.533Z,83.30
2022-11-21T16:45:19.085Z,83.80
2022-11-21T16:50:23.953Z,83.90
2022-11-21T16:55:27.548Z,84.00
2022-11-21T17:00:31.203Z,84.10
2022-11-21T17:05:36.150Z,84.60
2022-11-21T17:10:39.626Z,84.60
2022-11-21T17:15:43.192Z,84.80
2022-11-21T17:20:48.064Z,85.00
2022-11-21T17:25:51.715Z,85.00
2022-11-21T17:30:55.268Z,85.00
2022-11-21T17:36:02.679Z,85.30
2022-11-21T17:41:07.682Z,85.30
2022-11-21T17:46:13.945Z,85.40
2022-11-21T17:51:21.319Z,85.30
2022-11-21T17:56:28.075Z,85.30
2022-11-21T18:01:32.156Z,85.50
2022-11-21T18:06:39.072Z,85.50
2022-11-21T18:11:42.781Z,85.50
2022-11-21T18:16:52.877Z,85.50
2022-11-21T18:21:58.153Z,85.30
2022-11-21T18:27:01.819Z,85.50
2022-11-21T18:32:06.939Z,85.50
2022-11-21T18:37:11.931Z,85.50
2022-11-21T18:42:15.469Z,85.40
2022-11-21T18:47:20.801Z,85.20
2022-11-21T18:52:26.107Z,85.20
2022-11-21T18:57:29.669Z,85.50
2022-11-21T19:02:33.231Z,85.60
2022-11-21T19:07:38.189Z,85.60
2022-11-21T19:12:41.964Z,85.50
2022-11-21T19:17:45.674Z,85.70
2022-11-21T19:22:52.363Z,85.90
2022-11-21T19:27:55.986Z,86.00
2022-11-21T19:32:59.791Z,86.20
2022-11-21T19:38:06.645Z,86.30
2022-11-21T19:43:10.177Z,86.20
2022-11-21T19:48:13.768Z,86.30
2022-11-21T19:53:18.633Z,86.10
2022-11-21T19:58:23.385Z,86.20
2022-11-21T20:03:26.885Z,85.90
2022-11-21T20:08:31.813Z,85.70
2022-11-21T20:13:35.315Z,85.60
2022-11-21T20:18:38.965Z,85.50
2022-11-21T20:23:46.103Z,85.60
2022-11-21T20:28:50.796Z,85.70
2022-11-21T20:33:57.448Z,86.00
2022-11-21T20:39:04.066Z,86.10
2022-11-21T20:49:34.128Z,85.70
2022-11-21T20:54:39.061Z,85.70
2022-11-21T20:59:42.635Z,85.70
2022-11-21T21:04:46.188Z,85.60
2022-11-21T21:09:51.309Z,85.50
2022-11-21T21:14:54.933Z,85.60
2022-11-21T21:19:58.538Z,85.70
2022-11-21T21:25:03.491Z,85.80
2022-11-21T21:30:08.072Z,86.00
2022-11-21T21:35:11.790Z,86.20
2022-11-21T21:40:17.518Z,86.50
2022-11-21T21:45:21.094Z,86.40
2022-11-21T21:50:24.663Z,86.60
2022-11-21T21:55:30.353Z,86.90
2022-11-21T22:00:33.887Z,87.40
2022-11-21T22:05:37.410Z,87.90
2022-11-21T22:10:42.367Z,88.10
2022-11-21T22:15:45.920Z,88.50
2022-11-21T22:20:49.439Z,89.00
2022-11-21T22:25:57.750Z,89.30
2022-11-21T22:31:01.493Z,89.90
2022-11-21T22:36:06.868Z,90.10
2022-11-21T22:41:15.596Z,90.40
2022-11-21T22:46:19.214Z,90.40
2022-11-21T22:51:25.312Z,90.40
2022-11-21T22:56:30.247Z,90.40
2022-11-21T23:01:35.097Z,90.50
2022-11-21T23:06:38.714Z,90.60
2022-11-21T23:11:43.656Z,90.60
2022-11-21T23:16:47.227Z,90.70
2022-11-21T23:21:50.830Z,90.80
2022-11-21T23:26:55.748Z,90.80
